sensor_id;sensor_type;location;lat;lon;timestamp;P1;durP1;ratioP1;P2;durP2;ratioP2
38865;SDS011;62686;48.984;8.394;2023-05-07T00:01:39;5.65;;;3.20;;
38865;SDS011;62686;48.984;8.394;2023-05-07T00:04:07;4.97;;;2.88;;
38865;SDS011;62686;48.984;8.394;2023-05-07T00:06:35;5.85;;;3.10;;
38865;SDS011;62686;48.984;8.394;2023-05-07T00:09:03;4.80;;;3.15;;
38865;SDS011;62686;48.984;8.394;2023-05-07T00:11:32;7.03;;;2.88;;
38865;SDS011;62686;48.984;8.394;2023-05-07T00:14:02;4.43;;;3.13;;
38865;SDS011;62686;48.984;8.394;2023-05-07T00:16:30;3.90;;;2.90;;
38865;SDS011;62686;48.984;8.394;2023-05-07T00:19:00;6.28;;;3.33;;
38865;SDS011;62686;48.984;8.394;2023-05-07T00:21:28;7.22;;;2.83;;
38865;SDS011;62686;48.984;8.394;2023-05-07T00:23:56;4.72;;;3.47;;
38865;SDS011;62686;48.984;8.394;2023-05-07T00:26:25;3.53;;;2.83;;
38865;SDS011;62686;48.984;8.394;2023-05-07T00:28:53;5.10;;;2.80;;
38865;SDS011;62686;48.984;8.394;2023-05-07T00:31:21;6.13;;;3.00;;
38865;SDS011;62686;48.984;8.394;2023-05-07T00:33:49;5.22;;;3.00;;
38865;SDS011;62686;48.984;8.394;2023-05-07T00:36:19;3.58;;;3.10;;
38865;SDS011;62686;48.984;8.394;2023-05-07T00:38:47;4.45;;;3.30;;
38865;SDS011;62686;48.984;8.394;2023-05-07T00:41:15;3.95;;;3.20;;
38865;SDS011;62686;48.984;8.394;2023-05-07T00:43:44;3.63;;;2.83;;
38865;SDS011;62686;48.984;8.394;2023-05-07T00:46:12;3.22;;;2.70;;
38865;SDS011;62686;48.984;8.394;2023-05-07T00:48:42;4.35;;;2.78;;
38865;SDS011;62686;48.984;8.394;2023-05-07T00:51:10;3.10;;;2.65;;
38865;SDS011;62686;48.984;8.394;2023-05-07T00:53:40;6.95;;;3.15;;
38865;SDS011;62686;48.984;8.394;2023-05-07T00:56:09;4.63;;;2.67;;
38865;SDS011;62686;48.984;8.394;2023-05-07T00:58:37;6.38;;;3.00;;
38865;SDS011;62686;48.984;8.394;2023-05-07T01:01:06;9.68;;;3.33;;
38865;SDS011;62686;48.984;8.394;2023-05-07T01:03:34;4.25;;;2.85;;
38865;SDS011;62686;48.984;8.394;2023-05-07T01:06:02;5.15;;;2.83;;
38865;SDS011;62686;48.984;8.394;2023-05-07T01:08:32;5.18;;;2.60;;
38865;SDS011;62686;48.984;8.394;2023-05-07T01:11:02;6.20;;;2.92;;
38865;SDS011;62686;48.984;8.394;2023-05-07T01:13:31;4.70;;;2.63;;
38865;SDS011;62686;48.984;8.394;2023-05-07T01:15:59;5.78;;;2.53;;
38865;SDS011;62686;48.984;8.394;2023-05-07T01:18:28;7.32;;;2.80;;
38865;SDS011;62686;48.984;8.394;2023-05-07T01:20:56;5.25;;;2.63;;
38865;SDS011;62686;48.984;8.394;2023-05-07T01:23:27;4.25;;;2.60;;
38865;SDS011;62686;48.984;8.394;2023-05-07T01:25:58;4.95;;;3.08;;
38865;SDS011;62686;48.984;8.394;2023-05-07T01:28:26;5.97;;;3.00;;
38865;SDS011;62686;48.984;8.394;2023-05-07T01:30:54;4.28;;;3.13;;
38865;SDS011;62686;48.984;8.394;2023-05-07T01:33:29;4.55;;;2.70;;
38865;SDS011;62686;48.984;8.394;2023-05-07T01:36:02;4.25;;;2.85;;
38865;SDS011;62686;48.984;8.394;2023-05-07T01:38:34;4.28;;;2.75;;
38865;SDS011;62686;48.984;8.394;2023-05-07T01:41:03;3.97;;;3.00;;
38865;SDS011;62686;48.984;8.394;2023-05-07T01:43:32;4.57;;;2.85;;
38865;SDS011;62686;48.984;8.394;2023-05-07T01:46:01;3.33;;;3.03;;
38865;SDS011;62686;48.984;8.394;2023-05-07T01:48:30;3.35;;;2.60;;
38865;SDS011;62686;48.984;8.394;2023-05-07T01:50:59;4.20;;;2.97;;
38865;SDS011;62686;48.984;8.394;2023-05-07T01:53:29;4.00;;;3.00;;
38865;SDS011;62686;48.984;8.394;2023-05-07T01:56:05;3.47;;;2.83;;
38865;SDS011;62686;48.984;8.394;2023-05-07T01:58:33;6.47;;;3.10;;
38865;SDS011;62686;48.984;8.394;2023-05-07T02:01:02;3.60;;;2.63;;
38865;SDS011;62686;48.984;8.394;2023-05-07T02:03:30;3.03;;;2.45;;
38865;SDS011;62686;48.984;8.394;2023-05-07T02:05:58;4.70;;;2.90;;
38865;SDS011;62686;48.984;8.394;2023-05-07T02:08:26;4.80;;;2.88;;
38865;SDS011;62686;48.984;8.394;2023-05-07T02:10:56;5.47;;;2.88;;
38865;SDS011;62686;48.984;8.394;2023-05-07T02:13:25;6.45;;;2.95;;
38865;SDS011;62686;48.984;8.394;2023-05-07T02:15:54;3.22;;;2.90;;
38865;SDS011;62686;48.984;8.394;2023-05-07T02:18:22;5.18;;;3.20;;
38865;SDS011;62686;48.984;8.394;2023-05-07T02:20:50;5.00;;;2.75;;
38865;SDS011;62686;48.984;8.394;2023-05-07T02:23:18;3.95;;;3.05;;
38865;SDS011;62686;48.984;8.394;2023-05-07T02:25:47;4.75;;;3.00;;
38865;SDS011;62686;48.984;8.394;2023-05-07T02:28:16;4.45;;;3.00;;
38865;SDS011;62686;48.984;8.394;2023-05-07T02:30:44;3.25;;;2.95;;
38865;SDS011;62686;48.984;8.394;2023-05-07T02:33:13;4.47;;;3.00;;
38865;SDS011;62686;48.984;8.394;2023-05-07T02:35:41;6.20;;;3.05;;
38865;SDS011;62686;48.984;8.394;2023-05-07T02:38:09;4.72;;;3.13;;
38865;SDS011;62686;48.984;8.394;2023-05-07T02:40:37;3.88;;;3.45;;
38865;SDS011;62686;48.984;8.394;2023-05-07T02:43:06;5.07;;;3.25;;
38865;SDS011;62686;48.984;8.394;2023-05-07T02:45:35;5.18;;;3.28;;
38865;SDS011;62686;48.984;8.394;2023-05-07T02:48:04;3.65;;;3.35;;
38865;SDS011;62686;48.984;8.394;2023-05-07T02:50:32;6.47;;;3.22;;
38865;SDS011;62686;48.984;8.394;2023-05-07T02:53:01;5.95;;;3.60;;
38865;SDS011;62686;48.984;8.394;2023-05-07T02:55:29;3.88;;;3.17;;
38865;SDS011;62686;48.984;8.394;2023-05-07T02:57:58;4.72;;;3.58;;
38865;SDS011;62686;48.984;8.394;2023-05-07T03:00:26;5.45;;;3.10;;
38865;SDS011;62686;48.984;8.394;2023-05-07T03:02:55;4.00;;;3.10;;
38865;SDS011;62686;48.984;8.394;2023-05-07T03:05:23;3.65;;;2.72;;
38865;SDS011;62686;48.984;8.394;2023-05-07T03:07:51;8.35;;;2.90;;
38865;SDS011;62686;48.984;8.394;2023-05-07T03:10:20;4.05;;;2.90;;
38865;SDS011;62686;48.984;8.394;2023-05-07T03:12:48;4.88;;;3.20;;
38865;SDS011;62686;48.984;8.394;2023-05-07T03:15:16;4.57;;;2.88;;
38865;SDS011;62686;48.984;8.394;2023-05-07T03:17:44;3.93;;;3.30;;
38865;SDS011;62686;48.984;8.394;2023-05-07T03:20:14;5.93;;;3.30;;
38865;SDS011;62686;48.984;8.394;2023-05-07T03:22:42;4.50;;;3.20;;
38865;SDS011;62686;48.984;8.394;2023-05-07T03:25:10;6.10;;;3.30;;
38865;SDS011;62686;48.984;8.394;2023-05-07T03:27:38;4.10;;;2.92;;
38865;SDS011;62686;48.984;8.394;2023-05-07T03:30:08;4.07;;;3.20;;
38865;SDS011;62686;48.984;8.394;2023-05-07T03:32:37;4.25;;;3.20;;
38865;SDS011;62686;48.984;8.394;2023-05-07T03:35:06;3.77;;;3.13;;
38865;SDS011;62686;48.984;8.394;2023-05-07T03:37:35;4.37;;;3.70;;
38865;SDS011;62686;48.984;8.394;2023-05-07T03:40:04;3.70;;;3.13;;
38865;SDS011;62686;48.984;8.394;2023-05-07T03:42:34;5.65;;;3.67;;
38865;SDS011;62686;48.984;8.394;2023-05-07T03:45:02;4.55;;;3.47;;
38865;SDS011;62686;48.984;8.394;2023-05-07T03:47:30;5.00;;;3.75;;
38865;SDS011;62686;48.984;8.394;2023-05-07T03:49:59;4.13;;;3.13;;
38865;SDS011;62686;48.984;8.394;2023-05-07T03:52:27;4.87;;;3.40;;
38865;SDS011;62686;48.984;8.394;2023-05-07T03:54:57;4.03;;;2.80;;
38865;SDS011;62686;48.984;8.394;2023-05-07T03:57:25;5.03;;;3.03;;
38865;SDS011;62686;48.984;8.394;2023-05-07T03:59:53;3.83;;;3.20;;
38865;SDS011;62686;48.984;8.394;2023-05-07T04:02:21;4.40;;;3.08;;
38865;SDS011;62686;48.984;8.394;2023-05-07T04:04:49;3.50;;;3.20;;
38865;SDS011;62686;48.984;8.394;2023-05-07T04:07:18;5.67;;;3.67;;
38865;SDS011;62686;48.984;8.394;2023-05-07T04:09:46;4.17;;;3.10;;
38865;SDS011;62686;48.984;8.394;2023-05-07T04:12:16;7.33;;;3.57;;
38865;SDS011;62686;48.984;8.394;2023-05-07T04:14:44;5.70;;;3.77;;
38865;SDS011;62686;48.984;8.394;2023-05-07T04:17:13;5.00;;;3.20;;
38865;SDS011;62686;48.984;8.394;2023-05-07T04:19:41;3.97;;;3.37;;
38865;SDS011;62686;48.984;8.394;2023-05-07T04:22:11;3.85;;;3.10;;
38865;SDS011;62686;48.984;8.394;2023-05-07T04:24:39;6.72;;;3.70;;
38865;SDS011;62686;48.984;8.394;2023-05-07T04:27:08;4.30;;;3.15;;
38865;SDS011;62686;48.984;8.394;2023-05-07T04:29:37;3.40;;;3.00;;
38865;SDS011;62686;48.984;8.394;2023-05-07T04:32:08;3.30;;;2.72;;
38865;SDS011;62686;48.984;8.394;2023-05-07T04:34:37;5.07;;;3.38;;
38865;SDS011;62686;48.984;8.394;2023-05-07T04:37:05;3.97;;;3.25;;
38865;SDS011;62686;48.984;8.394;2023-05-07T04:39:33;5.32;;;3.10;;
38865;SDS011;62686;48.984;8.394;2023-05-07T04:42:02;3.65;;;2.95;;
38865;SDS011;62686;48.984;8.394;2023-05-07T04:44:31;4.38;;;3.00;;
38865;SDS011;62686;48.984;8.394;2023-05-07T04:47:00;5.13;;;3.50;;
38865;SDS011;62686;48.984;8.394;2023-05-07T04:49:28;5.50;;;2.85;;
38865;SDS011;62686;48.984;8.394;2023-05-07T04:51:57;4.55;;;2.90;;
38865;SDS011;62686;48.984;8.394;2023-05-07T04:54:25;3.67;;;2.90;;
38865;SDS011;62686;48.984;8.394;2023-05-07T04:56:53;4.75;;;2.83;;
38865;SDS011;62686;48.984;8.394;2023-05-07T04:59:21;3.50;;;2.80;;
38865;SDS011;62686;48.984;8.394;2023-05-07T05:01:50;4.25;;;2.72;;
38865;SDS011;62686;48.984;8.394;2023-05-07T05:04:19;3.60;;;3.05;;
38865;SDS011;62686;48.984;8.394;2023-05-07T05:06:47;4.18;;;3.10;;
38865;SDS011;62686;48.984;8.394;2023-05-07T05:09:16;7.30;;;3.10;;
38865;SDS011;62686;48.984;8.394;2023-05-07T05:11:44;4.30;;;3.20;;
38865;SDS011;62686;48.984;8.394;2023-05-07T05:14:12;4.03;;;3.00;;
38865;SDS011;62686;48.984;8.394;2023-05-07T05:16:41;3.40;;;2.53;;
38865;SDS011;62686;48.984;8.394;2023-05-07T05:19:09;2.88;;;2.55;;
38865;SDS011;62686;48.984;8.394;2023-05-07T05:21:38;2.83;;;2.42;;
38865;SDS011;62686;48.984;8.394;2023-05-07T05:24:07;3.83;;;3.00;;
38865;SDS011;62686;48.984;8.394;2023-05-07T05:26:35;3.10;;;2.63;;
38865;SDS011;62686;48.984;8.394;2023-05-07T05:29:03;2.72;;;2.22;;
38865;SDS011;62686;48.984;8.394;2023-05-07T05:31:32;2.67;;;2.30;;
38865;SDS011;62686;48.984;8.394;2023-05-07T05:34:00;3.33;;;2.47;;
38865;SDS011;62686;48.984;8.394;2023-05-07T05:36:28;2.78;;;2.28;;
38865;SDS011;62686;48.984;8.394;2023-05-07T05:38:58;5.35;;;2.53;;
38865;SDS011;62686;48.984;8.394;2023-05-07T05:41:26;3.40;;;1.95;;
38865;SDS011;62686;48.984;8.394;2023-05-07T05:43:54;3.72;;;2.17;;
38865;SDS011;62686;48.984;8.394;2023-05-07T05:46:22;2.92;;;2.30;;
38865;SDS011;62686;48.984;8.394;2023-05-07T05:48:50;3.90;;;2.25;;
38865;SDS011;62686;48.984;8.394;2023-05-07T05:51:20;2.58;;;1.92;;
38865;SDS011;62686;48.984;8.394;2023-05-07T05:53:48;3.25;;;2.00;;
38865;SDS011;62686;48.984;8.394;2023-05-07T05:56:18;4.57;;;2.67;;
38865;SDS011;62686;48.984;8.394;2023-05-07T05:58:46;5.28;;;2.78;;
38865;SDS011;62686;48.984;8.394;2023-05-07T06:01:14;4.18;;;2.67;;
38865;SDS011;62686;48.984;8.394;2023-05-07T06:03:42;3.55;;;2.42;;
38865;SDS011;62686;48.984;8.394;2023-05-07T06:06:10;2.75;;;2.10;;
38865;SDS011;62686;48.984;8.394;2023-05-07T06:08:40;4.07;;;2.28;;
38865;SDS011;62686;48.984;8.394;2023-05-07T06:11:09;4.78;;;2.35;;
38865;SDS011;62686;48.984;8.394;2023-05-07T06:13:39;2.88;;;2.30;;
38865;SDS011;62686;48.984;8.394;2023-05-07T06:16:07;3.60;;;2.40;;
38865;SDS011;62686;48.984;8.394;2023-05-07T06:18:35;4.03;;;2.08;;
38865;SDS011;62686;48.984;8.394;2023-05-07T06:21:03;3.13;;;2.42;;
38865;SDS011;62686;48.984;8.394;2023-05-07T06:23:32;2.60;;;2.10;;
38865;SDS011;62686;48.984;8.394;2023-05-07T06:26:00;3.38;;;2.60;;
38865;SDS011;62686;48.984;8.394;2023-05-07T06:28:28;2.80;;;2.30;;
38865;SDS011;62686;48.984;8.394;2023-05-07T06:31:12;3.25;;;2.30;;
38865;SDS011;62686;48.984;8.394;2023-05-07T06:33:42;4.03;;;2.30;;
38865;SDS011;62686;48.984;8.394;2023-05-07T06:36:11;8.40;;;2.15;;
38865;SDS011;62686;48.984;8.394;2023-05-07T06:38:39;2.58;;;1.80;;
38865;SDS011;62686;48.984;8.394;2023-05-07T06:41:07;3.40;;;2.08;;
38865;SDS011;62686;48.984;8.394;2023-05-07T06:43:35;2.35;;;1.88;;
38865;SDS011;62686;48.984;8.394;2023-05-07T06:46:04;3.40;;;1.90;;
38865;SDS011;62686;48.984;8.394;2023-05-07T06:48:33;3.13;;;1.40;;
38865;SDS011;62686;48.984;8.394;2023-05-07T06:51:04;2.30;;;1.75;;
38865;SDS011;62686;48.984;8.394;2023-05-07T06:53:32;2.53;;;1.67;;
38865;SDS011;62686;48.984;8.394;2023-05-07T06:56:01;4.20;;;1.70;;
38865;SDS011;62686;48.984;8.394;2023-05-07T06:58:29;3.35;;;1.98;;
38865;SDS011;62686;48.984;8.394;2023-05-07T07:00:57;2.85;;;1.90;;
38865;SDS011;62686;48.984;8.394;2023-05-07T07:03:26;3.45;;;1.70;;
38865;SDS011;62686;48.984;8.394;2023-05-07T07:05:55;2.83;;;1.85;;
38865;SDS011;62686;48.984;8.394;2023-05-07T07:08:24;3.38;;;1.67;;
38865;SDS011;62686;48.984;8.394;2023-05-07T07:10:52;6.60;;;2.08;;
38865;SDS011;62686;48.984;8.394;2023-05-07T07:13:20;3.03;;;1.48;;
38865;SDS011;62686;48.984;8.394;2023-05-07T07:15:49;6.60;;;1.73;;
38865;SDS011;62686;48.984;8.394;2023-05-07T07:18:17;3.95;;;1.48;;
38865;SDS011;62686;48.984;8.394;2023-05-07T07:20:48;1.63;;;1.50;;
38865;SDS011;62686;48.984;8.394;2023-05-07T07:23:18;2.33;;;1.60;;
38865;SDS011;62686;48.984;8.394;2023-05-07T07:25:47;2.40;;;1.70;;
38865;SDS011;62686;48.984;8.394;2023-05-07T07:28:16;2.85;;;1.45;;
38865;SDS011;62686;48.984;8.394;2023-05-07T07:30:45;4.28;;;1.40;;
38865;SDS011;62686;48.984;8.394;2023-05-07T07:33:16;4.53;;;1.40;;
38865;SDS011;62686;48.984;8.394;2023-05-07T07:35:44;2.75;;;1.55;;
38865;SDS011;62686;48.984;8.394;2023-05-07T07:38:12;2.30;;;1.50;;
38865;SDS011;62686;48.984;8.394;2023-05-07T07:40:42;2.78;;;1.70;;
38865;SDS011;62686;48.984;8.394;2023-05-07T07:43:10;2.92;;;1.90;;
38865;SDS011;62686;48.984;8.394;2023-05-07T07:45:39;4.53;;;1.83;;
38865;SDS011;62686;48.984;8.394;2023-05-07T07:48:08;2.85;;;1.77;;
38865;SDS011;62686;48.984;8.394;2023-05-07T07:50:36;3.55;;;1.75;;
38865;SDS011;62686;48.984;8.394;2023-05-07T07:53:08;1.80;;;1.63;;
38865;SDS011;62686;48.984;8.394;2023-05-07T07:55:37;2.28;;;1.70;;
38865;SDS011;62686;48.984;8.394;2023-05-07T07:58:08;2.97;;;1.75;;
38865;SDS011;62686;48.984;8.394;2023-05-07T08:00:39;2.75;;;1.30;;
38865;SDS011;62686;48.984;8.394;2023-05-07T08:03:08;3.45;;;1.48;;
38865;SDS011;62686;48.984;8.394;2023-05-07T08:05:37;2.60;;;1.90;;
38865;SDS011;62686;48.984;8.394;2023-05-07T08:08:06;2.88;;;1.52;;
38865;SDS011;62686;48.984;8.394;2023-05-07T08:10:37;1.98;;;1.20;;
38865;SDS011;62686;48.984;8.394;2023-05-07T08:13:05;4.40;;;1.30;;
38865;SDS011;62686;48.984;8.394;2023-05-07T08:26:17;3.42;;;1.70;;
38865;SDS011;62686;48.984;8.394;2023-05-07T08:28:46;3.35;;;1.50;;
38865;SDS011;62686;48.984;8.394;2023-05-07T08:31:14;3.58;;;1.20;;
38865;SDS011;62686;48.984;8.394;2023-05-07T08:33:43;3.88;;;1.40;;
38865;SDS011;62686;48.984;8.394;2023-05-07T08:36:11;5.78;;;1.45;;
38865;SDS011;62686;48.984;8.394;2023-05-07T08:38:39;2.65;;;1.75;;
38865;SDS011;62686;48.984;8.394;2023-05-07T08:41:09;5.68;;;1.48;;
38865;SDS011;62686;48.984;8.394;2023-05-07T08:43:39;2.03;;;1.40;;
38865;SDS011;62686;48.984;8.394;2023-05-07T08:46:09;3.17;;;1.70;;
38865;SDS011;62686;48.984;8.394;2023-05-07T08:48:40;3.00;;;1.63;;
38865;SDS011;62686;48.984;8.394;2023-05-07T08:51:11;3.42;;;1.33;;
38865;SDS011;62686;48.984;8.394;2023-05-07T08:53:41;1.55;;;1.35;;
38865;SDS011;62686;48.984;8.394;2023-05-07T08:56:10;1.67;;;1.30;;
38865;SDS011;62686;48.984;8.394;2023-05-07T08:58:41;2.47;;;1.50;;
38865;SDS011;62686;48.984;8.394;2023-05-07T09:01:10;4.13;;;1.40;;
38865;SDS011;62686;48.984;8.394;2023-05-07T09:03:41;7.10;;;1.50;;
38865;SDS011;62686;48.984;8.394;2023-05-07T09:06:12;2.67;;;1.58;;
38865;SDS011;62686;48.984;8.394;2023-05-07T09:08:49;2.50;;;1.50;;
38865;SDS011;62686;48.984;8.394;2023-05-07T09:11:20;1.70;;;1.30;;
38865;SDS011;62686;48.984;8.394;2023-05-07T09:13:53;3.47;;;1.25;;
38865;SDS011;62686;48.984;8.394;2023-05-07T09:16:25;4.35;;;1.50;;
38865;SDS011;62686;48.984;8.394;2023-05-07T09:18:57;2.45;;;1.45;;
38865;SDS011;62686;48.984;8.394;2023-05-07T09:21:27;1.65;;;1.45;;
38865;SDS011;62686;48.984;8.394;2023-05-07T09:23:55;4.32;;;1.60;;
38865;SDS011;62686;48.984;8.394;2023-05-07T09:26:24;3.78;;;1.60;;
38865;SDS011;62686;48.984;8.394;2023-05-07T09:28:55;2.72;;;1.40;;
38865;SDS011;62686;48.984;8.394;2023-05-07T09:31:24;1.77;;;1.23;;
38865;SDS011;62686;48.984;8.394;2023-05-07T09:33:59;2.78;;;1.50;;
38865;SDS011;62686;48.984;8.394;2023-05-07T09:36:27;1.90;;;1.50;;
38865;SDS011;62686;48.984;8.394;2023-05-07T09:38:56;3.67;;;1.65;;
38865;SDS011;62686;48.984;8.394;2023-05-07T09:41:27;3.85;;;1.58;;
38865;SDS011;62686;48.984;8.394;2023-05-07T09:44:00;3.83;;;1.50;;
38865;SDS011;62686;48.984;8.394;2023-05-07T09:46:31;2.65;;;1.40;;
38865;SDS011;62686;48.984;8.394;2023-05-07T09:49:06;1.65;;;1.10;;
38865;SDS011;62686;48.984;8.394;2023-05-07T09:51:41;1.60;;;1.40;;
38865;SDS011;62686;48.984;8.394;2023-05-07T09:54:25;2.28;;;1.58;;
38865;SDS011;62686;48.984;8.394;2023-05-07T09:56:58;4.63;;;1.58;;
38865;SDS011;62686;48.984;8.394;2023-05-07T10:04:49;1.95;;;1.60;;
38865;SDS011;62686;48.984;8.394;2023-05-07T10:07:18;4.65;;;2.00;;
38865;SDS011;62686;48.984;8.394;2023-05-07T10:09:47;1.67;;;1.50;;
38865;SDS011;62686;48.984;8.394;2023-05-07T10:12:17;4.05;;;1.70;;
38865;SDS011;62686;48.984;8.394;2023-05-07T10:14:47;4.15;;;1.80;;
38865;SDS011;62686;48.984;8.394;2023-05-07T10:17:16;2.75;;;1.88;;
38865;SDS011;62686;48.984;8.394;2023-05-07T10:19:48;3.15;;;1.90;;
38865;SDS011;62686;48.984;8.394;2023-05-07T10:22:18;2.58;;;1.60;;
38865;SDS011;62686;48.984;8.394;2023-05-07T10:24:47;2.60;;;1.50;;
38865;SDS011;62686;48.984;8.394;2023-05-07T10:27:19;3.03;;;1.77;;
38865;SDS011;62686;48.984;8.394;2023-05-07T10:29:50;3.70;;;1.60;;
38865;SDS011;62686;48.984;8.394;2023-05-07T10:32:35;5.40;;;1.50;;
38865;SDS011;62686;48.984;8.394;2023-05-07T10:35:09;3.72;;;1.50;;
38865;SDS011;62686;48.984;8.394;2023-05-07T10:37:41;3.50;;;2.00;;
38865;SDS011;62686;48.984;8.394;2023-05-07T10:40:10;3.15;;;1.70;;
38865;SDS011;62686;48.984;8.394;2023-05-07T10:42:52;2.45;;;1.80;;
38865;SDS011;62686;48.984;8.394;2023-05-07T10:45:22;3.70;;;1.50;;
38865;SDS011;62686;48.984;8.394;2023-05-07T10:48:10;2.13;;;1.27;;
38865;SDS011;62686;48.984;8.394;2023-05-07T10:51:18;4.10;;;1.55;;
38865;SDS011;62686;48.984;8.394;2023-05-07T10:53:47;3.67;;;1.92;;
38865;SDS011;62686;48.984;8.394;2023-05-07T10:56:25;2.55;;;1.55;;
38865;SDS011;62686;48.984;8.394;2023-05-07T10:58:54;2.95;;;1.70;;
38865;SDS011;62686;48.984;8.394;2023-05-07T11:04:21;5.38;;;1.60;;
38865;SDS011;62686;48.984;8.394;2023-05-07T11:07:14;2.55;;;1.42;;
38865;SDS011;62686;48.984;8.394;2023-05-07T11:09:55;2.45;;;1.48;;
38865;SDS011;62686;48.984;8.394;2023-05-07T11:15:34;3.35;;;1.55;;
38865;SDS011;62686;48.984;8.394;2023-05-07T11:18:08;2.75;;;1.45;;
38865;SDS011;62686;48.984;8.394;2023-05-07T11:20:46;3.42;;;1.70;;
38865;SDS011;62686;48.984;8.394;2023-05-07T11:26:29;5.25;;;1.50;;
38865;SDS011;62686;48.984;8.394;2023-05-07T11:31:40;2.33;;;1.38;;
38865;SDS011;62686;48.984;8.394;2023-05-07T11:34:08;3.78;;;1.90;;
38865;SDS011;62686;48.984;8.394;2023-05-07T11:36:40;2.58;;;1.50;;
38865;SDS011;62686;48.984;8.394;2023-05-07T11:39:27;3.00;;;1.70;;
38865;SDS011;62686;48.984;8.394;2023-05-07T11:41:57;6.30;;;1.55;;
38865;SDS011;62686;48.984;8.394;2023-05-07T11:44:39;3.17;;;1.95;;
38865;SDS011;62686;48.984;8.394;2023-05-07T11:47:09;3.42;;;1.50;;
38865;SDS011;62686;48.984;8.394;2023-05-07T11:49:38;2.30;;;1.38;;
38865;SDS011;62686;48.984;8.394;2023-05-07T11:52:06;2.83;;;1.40;;
38865;SDS011;62686;48.984;8.394;2023-05-07T11:54:36;2.97;;;1.58;;
38865;SDS011;62686;48.984;8.394;2023-05-07T11:57:05;2.45;;;1.50;;
38865;SDS011;62686;48.984;8.394;2023-05-07T11:59:38;2.70;;;1.60;;
38865;SDS011;62686;48.984;8.394;2023-05-07T12:02:08;4.55;;;1.40;;
38865;SDS011;62686;48.984;8.394;2023-05-07T12:04:37;2.28;;;1.42;;
38865;SDS011;62686;48.984;8.394;2023-05-07T12:07:06;1.90;;;1.13;;
38865;SDS011;62686;48.984;8.394;2023-05-07T12:09:40;2.33;;;1.40;;
38865;SDS011;62686;48.984;8.394;2023-05-07T12:12:09;4.28;;;1.42;;
38865;SDS011;62686;48.984;8.394;2023-05-07T12:14:38;1.77;;;1.30;;
38865;SDS011;62686;48.984;8.394;2023-05-07T12:17:07;4.85;;;1.40;;
38865;SDS011;62686;48.984;8.394;2023-05-07T12:19:36;2.13;;;1.20;;
38865;SDS011;62686;48.984;8.394;2023-05-07T12:22:05;3.42;;;1.48;;
38865;SDS011;62686;48.984;8.394;2023-05-07T12:24:45;3.28;;;1.48;;
38865;SDS011;62686;48.984;8.394;2023-05-07T12:27:15;2.75;;;1.30;;
38865;SDS011;62686;48.984;8.394;2023-05-07T12:29:44;2.22;;;1.23;;
38865;SDS011;62686;48.984;8.394;2023-05-07T12:32:13;4.10;;;1.15;;
38865;SDS011;62686;48.984;8.394;2023-05-07T12:34:42;4.05;;;2.00;;
38865;SDS011;62686;48.984;8.394;2023-05-07T12:37:11;4.85;;;1.75;;
38865;SDS011;62686;48.984;8.394;2023-05-07T12:39:47;2.20;;;1.65;;
38865;SDS011;62686;48.984;8.394;2023-05-07T12:42:16;3.17;;;1.67;;
38865;SDS011;62686;48.984;8.394;2023-05-07T12:44:49;2.53;;;1.60;;
38865;SDS011;62686;48.984;8.394;2023-05-07T12:47:18;2.67;;;1.50;;
38865;SDS011;62686;48.984;8.394;2023-05-07T12:49:48;2.47;;;1.42;;
38865;SDS011;62686;48.984;8.394;2023-05-07T12:52:16;1.80;;;1.42;;
38865;SDS011;62686;48.984;8.394;2023-05-07T12:54:45;1.75;;;1.48;;
38865;SDS011;62686;48.984;8.394;2023-05-07T12:57:15;3.15;;;1.60;;
38865;SDS011;62686;48.984;8.394;2023-05-07T12:59:47;3.72;;;1.48;;
38865;SDS011;62686;48.984;8.394;2023-05-07T13:02:16;2.80;;;1.52;;
38865;SDS011;62686;48.984;8.394;2023-05-07T13:04:44;2.28;;;1.60;;
38865;SDS011;62686;48.984;8.394;2023-05-07T13:07:14;2.40;;;1.52;;
38865;SDS011;62686;48.984;8.394;2023-05-07T13:09:42;3.70;;;1.73;;
38865;SDS011;62686;48.984;8.394;2023-05-07T13:12:12;2.72;;;1.67;;
38865;SDS011;62686;48.984;8.394;2023-05-07T13:14:40;4.50;;;1.48;;
38865;SDS011;62686;48.984;8.394;2023-05-07T13:17:08;3.85;;;1.70;;
38865;SDS011;62686;48.984;8.394;2023-05-07T13:19:36;4.35;;;1.80;;
38865;SDS011;62686;48.984;8.394;2023-05-07T13:22:04;5.07;;;1.60;;
38865;SDS011;62686;48.984;8.394;2023-05-07T13:24:33;2.95;;;1.48;;
38865;SDS011;62686;48.984;8.394;2023-05-07T13:27:01;2.67;;;1.50;;
38865;SDS011;62686;48.984;8.394;2023-05-07T13:29:31;2.20;;;1.42;;
38865;SDS011;62686;48.984;8.394;2023-05-07T13:32:00;1.70;;;1.30;;
38865;SDS011;62686;48.984;8.394;2023-05-07T13:34:28;3.35;;;1.50;;
38865;SDS011;62686;48.984;8.394;2023-05-07T13:36:56;1.92;;;1.40;;
38865;SDS011;62686;48.984;8.394;2023-05-07T13:39:25;2.88;;;1.50;;
38865;SDS011;62686;48.984;8.394;2023-05-07T13:41:53;2.95;;;1.27;;
38865;SDS011;62686;48.984;8.394;2023-05-07T13:44:22;2.80;;;1.67;;
38865;SDS011;62686;48.984;8.394;2023-05-07T13:46:53;2.42;;;1.48;;
38865;SDS011;62686;48.984;8.394;2023-05-07T13:49:21;6.28;;;1.77;;
38865;SDS011;62686;48.984;8.394;2023-05-07T13:51:50;4.60;;;1.58;;
38865;SDS011;62686;48.984;8.394;2023-05-07T13:54:18;4.53;;;2.00;;
38865;SDS011;62686;48.984;8.394;2023-05-07T13:56:47;3.85;;;1.95;;
38865;SDS011;62686;48.984;8.394;2023-05-07T13:59:15;1.83;;;1.63;;
38865;SDS011;62686;48.984;8.394;2023-05-07T14:01:43;4.95;;;1.90;;
38865;SDS011;62686;48.984;8.394;2023-05-07T14:04:13;4.03;;;2.13;;
38865;SDS011;62686;48.984;8.394;2023-05-07T14:06:41;4.28;;;2.00;;
38865;SDS011;62686;48.984;8.394;2023-05-07T14:09:09;4.57;;;2.20;;
38865;SDS011;62686;48.984;8.394;2023-05-07T14:11:39;5.40;;;2.45;;
38865;SDS011;62686;48.984;8.394;2023-05-07T14:14:08;4.57;;;2.25;;
38865;SDS011;62686;48.984;8.394;2023-05-07T14:16:37;6.13;;;2.60;;
38865;SDS011;62686;48.984;8.394;2023-05-07T14:19:06;3.67;;;2.25;;
38865;SDS011;62686;48.984;8.394;2023-05-07T14:21:36;2.28;;;1.90;;
38865;SDS011;62686;48.984;8.394;2023-05-07T14:24:05;2.35;;;1.60;;
38865;SDS011;62686;48.984;8.394;2023-05-07T14:26:34;3.70;;;1.40;;
38865;SDS011;62686;48.984;8.394;2023-05-07T14:29:02;3.03;;;1.13;;
38865;SDS011;62686;48.984;8.394;2023-05-07T14:31:30;2.50;;;1.10;;
38865;SDS011;62686;48.984;8.394;2023-05-07T14:33:59;2.00;;;1.30;;
38865;SDS011;62686;48.984;8.394;2023-05-07T14:36:28;1.55;;;1.40;;
38865;SDS011;62686;48.984;8.394;2023-05-07T14:38:59;1.95;;;0.90;;
38865;SDS011;62686;48.984;8.394;2023-05-07T14:41:27;1.45;;;0.98;;
38865;SDS011;62686;48.984;8.394;2023-05-07T14:43:56;1.50;;;1.02;;
38865;SDS011;62686;48.984;8.394;2023-05-07T14:46:25;3.20;;;1.67;;
38865;SDS011;62686;48.984;8.394;2023-05-07T14:48:53;1.63;;;1.20;;
38865;SDS011;62686;48.984;8.394;2023-05-07T14:51:21;1.60;;;1.20;;
38865;SDS011;62686;48.984;8.394;2023-05-07T14:53:50;3.53;;;1.13;;
38865;SDS011;62686;48.984;8.394;2023-05-07T14:56:19;1.08;;;0.90;;
38865;SDS011;62686;48.984;8.394;2023-05-07T14:58:51;1.30;;;0.90;;
38865;SDS011;62686;48.984;8.394;2023-05-07T15:01:21;2.17;;;1.00;;
38865;SDS011;62686;48.984;8.394;2023-05-07T15:03:49;1.58;;;1.15;;
38865;SDS011;62686;48.984;8.394;2023-05-07T15:06:17;2.70;;;1.30;;
38865;SDS011;62686;48.984;8.394;2023-05-07T15:08:46;2.20;;;1.10;;
38865;SDS011;62686;48.984;8.394;2023-05-07T15:11:14;2.00;;;1.10;;
38865;SDS011;62686;48.984;8.394;2023-05-07T15:13:44;1.30;;;1.10;;
38865;SDS011;62686;48.984;8.394;2023-05-07T15:16:13;3.17;;;1.20;;
38865;SDS011;62686;48.984;8.394;2023-05-07T15:18:41;1.58;;;1.17;;
38865;SDS011;62686;48.984;8.394;2023-05-07T15:21:10;1.40;;;1.00;;
38865;SDS011;62686;48.984;8.394;2023-05-07T15:23:38;2.10;;;1.20;;
38865;SDS011;62686;48.984;8.394;2023-05-07T15:26:07;2.00;;;1.00;;
38865;SDS011;62686;48.984;8.394;2023-05-07T15:28:35;1.55;;;1.27;;
38865;SDS011;62686;48.984;8.394;2023-05-07T15:31:06;1.90;;;1.23;;